Samarkand, Uzbekistan
Current Conditions -  °F | °C
As of 8:30 AM on Sunday 26 Oct 2014 (Local Time) from UTSS Reporting Station
Broken Clouds Broken Clouds  
Wind Chill: 52°   Ceiling: 13000
Heat Index: 52°   Visibility: 4mi
Dew Point: 48°   Wind: 0mph
Humidity: 88%   Direction: NA
Pressure: 30.03"   Gusts: NA
Location:  39.66°N, 66.95°E
Report Text: UTSS 260330Z 00000MPS 6000 BKN130 11/09 Q1017 R88/CLRD70 NOSIG
Loading
Personal Weather Stations






























Interactive Weather Map
Tropical Storm Tracking
New forecast layout! Learn more

10-Day Weather Forecast

Advertisements
Track Severe Weather on mobile